Time;durP1;ratioP1;P1;durP2;ratioP2;P2;SDS_P1;SDS_P2;PMS_P1;PMS_P2;Temp;Humidity;BMP_temperature;BMP_pressure;BME280_temperature;BME280_humidity;BME280_pressure;Samples;Min_cycle;Max_cycle;Signal;HPM_P1;HPM_P2
2024/01/24 00:01:40;;;;;;;1.30;0.50;;;6.30;99.90;;;;;;5044562;28;20224;-46
2024/01/24 00:04:08;;;;;;;1.70;0.77;;;6.30;99.90;;;;;;5036372;28;20212;-46
2024/01/24 00:06:37;;;;;;;2.95;1.00;;;6.20;99.90;;;;;;5039301;28;20224;-45
2024/01/24 00:09:05;;;;;;;1.95;0.85;;;6.20;99.90;;;;;;5036678;28;20648;-46
2024/01/24 00:11:33;;;;;;;2.20;1.63;;;6.20;99.90;;;;;;5040569;28;20228;-47
2024/01/24 00:14:02;;;;;;;1.88;1.00;;;6.30;99.90;;;;;;5035580;28;20742;-46
2024/01/24 00:16:31;;;;;;;1.40;0.73;;;6.30;99.90;;;;;;5042913;28;20559;-46
2024/01/24 00:18:59;;;;;;;2.13;1.00;;;6.30;99.90;;;;;;5045589;28;20186;-46
2024/01/24 00:21:28;;;;;;;1.52;0.70;;;6.30;99.90;;;;;;5040106;28;20221;-46
2024/01/24 00:23:56;;;;;;;1.60;0.70;;;6.30;99.90;;;;;;5037927;28;20181;-46
2024/01/24 00:26:25;;;;;;;2.10;1.10;;;6.30;99.90;;;;;;5041596;28;20229;-46
2024/01/24 00:28:53;;;;;;;1.80;1.30;;;6.30;99.90;;;;;;5045941;28;20204;-46
2024/01/24 00:31:21;;;;;;;1.73;0.70;;;6.30;99.90;;;;;;5038886;28;20225;-46
2024/01/24 00:33:52;;;;;;;2.20;0.90;;;6.30;99.90;;;;;;5039237;28;20565;-46
2024/01/24 00:36:20;;;;;;;1.55;0.68;;;6.30;99.90;;;;;;5048886;28;20217;-45
2024/01/24 00:38:48;;;;;;;2.83;0.70;;;6.30;99.90;;;;;;5044731;28;20185;-46
2024/01/24 00:41:17;;;;;;;3.10;1.05;;;6.30;99.90;;;;;;5040987;28;20221;-46
2024/01/24 00:43:45;;;;;;;1.70;0.60;;;6.30;99.90;;;;;;5037428;28;20200;-46
2024/01/24 00:46:13;;;;;;;1.55;0.70;;;6.30;99.90;;;;;;5036377;28;20233;-45
2024/01/24 00:48:41;;;;;;;1.48;0.73;;;6.30;99.90;;;;;;5043421;28;20219;-46
2024/01/24 00:51:11;;;;;;;1.50;0.60;;;6.30;99.90;;;;;;5040244;28;20220;-45
2024/01/24 00:53:41;;;;;;;2.03;0.98;;;6.30;99.90;;;;;;5047855;28;20212;-45
2024/01/24 00:56:10;;;;;;;1.92;0.70;;;6.30;99.90;;;;;;5045694;28;20255;-45
2024/01/24 00:58:38;;;;;;;1.40;0.60;;;6.30;99.90;;;;;;5045995;28;20201;-46
2024/01/24 01:01:06;;;;;;;2.50;0.80;;;6.30;99.90;;;;;;5039521;28;20216;-45
2024/01/24 01:03:34;;;;;;;1.40;0.70;;;6.30;99.90;;;;;;5045777;28;20285;-45
2024/01/24 01:06:04;;;;;;;1.98;0.80;;;6.30;99.90;;;;;;5039811;28;20670;-45
2024/01/24 01:08:33;;;;;;;2.10;0.82;;;6.40;99.90;;;;;;5044245;28;20194;-46
2024/01/24 01:11:02;;;;;;;2.28;0.98;;;6.30;99.90;;;;;;5040525;28;20218;-45
2024/01/24 01:13:30;;;;;;;2.10;0.80;;;6.40;99.90;;;;;;5041370;28;20578;-45
2024/01/24 01:15:58;;;;;;;2.28;0.88;;;6.30;99.90;;;;;;5045413;28;20220;-46
2024/01/24 01:18:27;;;;;;;1.80;1.23;;;6.40;99.90;;;;;;5044437;28;20267;-46
2024/01/24 01:20:54;;;;;;;1.70;0.60;;;6.30;99.90;;;;;;5036065;28;20302;-46
2024/01/24 01:23:23;;;;;;;3.38;1.00;;;6.40;99.90;;;;;;5050596;28;20218;-47
2024/01/24 01:25:53;;;;;;;1.90;0.98;;;6.40;99.90;;;;;;5045018;28;20209;-46
2024/01/24 01:28:21;;;;;;;1.83;1.02;;;6.40;99.90;;;;;;5042650;28;20212;-46
2024/01/24 01:30:50;;;;;;;2.33;0.70;;;6.40;99.90;;;;;;5041364;28;20695;-46
2024/01/24 01:33:18;;;;;;;1.45;0.80;;;6.40;99.90;;;;;;5047386;28;20223;-46
2024/01/24 01:35:46;;;;;;;2.55;1.05;;;6.40;99.90;;;;;;5040019;28;20220;-46
2024/01/24 01:38:14;;;;;;;1.50;0.70;;;6.40;99.90;;;;;;5040840;28;20202;-46
2024/01/24 01:40:43;;;;;;;1.30;0.75;;;6.40;99.90;;;;;;5048786;28;20224;-47
2024/01/24 01:43:15;;;;;;;1.75;0.70;;;6.40;99.90;;;;;;5043002;28;20582;-46
2024/01/24 01:45:43;;;;;;;2.15;1.25;;;6.40;99.90;;;;;;5038733;28;20224;-46
2024/01/24 01:48:13;;;;;;;1.80;0.73;;;6.40;99.90;;;;;;5046985;28;20201;-45
2024/01/24 01:50:41;;;;;;;1.75;0.82;;;6.40;99.90;;;;;;5041013;28;20232;-45
2024/01/24 01:53:09;;;;;;;2.92;0.77;;;6.40;99.90;;;;;;5046837;28;20213;-46
2024/01/24 01:55:38;;;;;;;4.05;0.88;;;6.40;99.90;;;;;;5043221;28;20278;-46
2024/01/24 01:58:06;;;;;;;1.60;0.98;;;6.40;99.90;;;;;;5043120;28;20193;-46
2024/01/24 02:00:36;;;;;;;2.47;0.70;;;6.40;99.90;;;;;;5049941;28;20731;-46
2024/01/24 02:03:05;;;;;;;1.70;0.88;;;6.40;99.90;;;;;;5045784;28;20248;-45
2024/01/24 02:05:33;;;;;;;1.90;0.70;;;6.40;99.90;;;;;;5032479;28;20336;-45
2024/01/24 02:08:07;;;;;;;2.70;0.80;;;6.40;99.90;;;;;;5044528;28;20276;-46
2024/01/24 02:10:38;;;;;;;1.85;0.80;;;6.40;99.90;;;;;;5044233;28;20710;-44
2024/01/24 02:13:07;;;;;;;2.50;0.82;;;6.50;99.90;;;;;;5045940;28;20217;-45
2024/01/24 02:15:36;;;;;;;2.25;0.77;;;6.40;99.90;;;;;;5040128;28;20308;-45
2024/01/24 02:18:05;;;;;;;1.58;0.88;;;6.50;99.90;;;;;;5038577;28;20664;-46
2024/01/24 02:20:35;;;;;;;2.45;0.93;;;6.50;99.90;;;;;;5041269;28;20317;-46
2024/01/24 02:23:04;;;;;;;1.30;0.77;;;6.50;99.90;;;;;;5047345;28;20212;-46
2024/01/24 02:25:33;;;;;;;3.15;1.00;;;6.50;99.90;;;;;;5046974;28;20252;-46
2024/01/24 02:28:01;;;;;;;1.50;0.88;;;6.50;99.90;;;;;;5046095;28;20193;-46
2024/01/24 02:30:30;;;;;;;1.55;0.70;;;6.50;99.90;;;;;;5037269;28;20224;-44
2024/01/24 02:32:59;;;;;;;1.33;0.70;;;6.50;99.90;;;;;;5042516;28;20299;-46
2024/01/24 02:35:28;;;;;;;1.55;0.95;;;6.50;99.90;;;;;;5040031;28;20221;-46
2024/01/24 02:37:56;;;;;;;1.60;0.80;;;6.50;99.90;;;;;;5043023;28;20224;-46
2024/01/24 02:40:25;;;;;;;1.98;0.90;;;6.50;99.90;;;;;;5043849;28;20222;-46
2024/01/24 02:42:54;;;;;;;2.75;0.93;;;6.50;99.90;;;;;;5039103;28;20281;-45
2024/01/24 02:45:22;;;;;;;1.58;0.90;;;6.50;99.90;;;;;;5041992;28;20247;-45
2024/01/24 02:47:51;;;;;;;1.63;0.60;;;6.50;99.90;;;;;;5040071;28;20730;-45
2024/01/24 02:50:19;;;;;;;1.98;0.82;;;6.50;99.90;;;;;;5041145;28;20190;-45
2024/01/24 02:52:47;;;;;;;2.67;1.10;;;6.50;99.90;;;;;;5037087;28;20676;-46
2024/01/24 02:55:16;;;;;;;1.88;0.82;;;6.50;99.90;;;;;;5040754;28;20694;-45
2024/01/24 02:57:44;;;;;;;1.30;0.68;;;6.50;99.90;;;;;;5043061;28;20224;-46
2024/01/24 03:00:15;;;;;;;1.60;0.80;;;6.60;99.90;;;;;;5041594;28;20298;-45
2024/01/24 03:02:43;;;;;;;1.30;0.60;;;6.60;99.90;;;;;;5040758;28;20286;-46
2024/01/24 03:05:11;;;;;;;1.67;0.93;;;6.50;99.90;;;;;;5040126;28;20194;-46
2024/01/24 03:07:41;;;;;;;1.40;0.60;;;6.60;99.90;;;;;;5045966;28;20204;-45
2024/01/24 03:10:09;;;;;;;1.63;0.85;;;6.60;99.90;;;;;;5042123;28;20204;-45
2024/01/24 03:12:37;;;;;;;2.40;1.15;;;6.50;99.90;;;;;;5040665;28;20442;-46
2024/01/24 03:15:07;;;;;;;1.80;0.95;;;6.60;99.90;;;;;;5038887;28;20209;-45
2024/01/24 03:17:36;;;;;;;1.80;0.73;;;6.60;99.90;;;;;;5040416;28;20481;-46
2024/01/24 03:20:07;;;;;;;1.70;0.80;;;6.50;99.90;;;;;;5042223;28;20702;-45
2024/01/24 03:22:35;;;;;;;2.03;0.70;;;6.60;99.90;;;;;;5044723;28;20295;-45
2024/01/24 03:25:04;;;;;;;1.77;0.82;;;6.60;99.90;;;;;;5043589;28;20292;-47
2024/01/24 03:27:32;;;;;;;1.27;0.90;;;6.60;99.90;;;;;;5044192;28;20789;-46
2024/01/24 03:30:00;;;;;;;1.63;0.50;;;6.60;99.90;;;;;;5043509;28;20195;-46
2024/01/24 03:32:28;;;;;;;2.10;0.70;;;6.60;99.90;;;;;;5044224;28;20235;-47
2024/01/24 03:34:59;;;;;;;1.63;0.73;;;6.60;99.90;;;;;;5040968;28;20213;-46
2024/01/24 03:37:28;;;;;;;1.30;0.70;;;6.60;99.90;;;;;;5040302;28;20220;-46
2024/01/24 03:39:56;;;;;;;1.35;0.60;;;6.60;99.90;;;;;;5042788;28;20545;-46
2024/01/24 03:42:24;;;;;;;4.22;0.80;;;6.60;99.90;;;;;;5044246;28;20229;-46
2024/01/24 03:44:53;;;;;;;1.63;0.70;;;6.60;99.90;;;;;;5041019;28;20189;-46
2024/01/24 03:47:21;;;;;;;1.20;0.65;;;6.60;99.90;;;;;;5038687;28;20702;-46
2024/01/24 03:49:49;;;;;;;1.40;0.50;;;6.60;99.90;;;;;;5038388;28;20208;-46
2024/01/24 03:52:19;;;;;;;2.00;0.70;;;6.60;99.90;;;;;;5040766;28;20226;-45
2024/01/24 03:54:47;;;;;;;1.10;0.40;;;6.60;99.90;;;;;;5042789;28;20217;-46
2024/01/24 03:57:16;;;;;;;1.30;0.40;;;6.60;99.90;;;;;;5039693;28;20221;-46
2024/01/24 03:59:44;;;;;;;1.40;0.70;;;6.60;99.90;;;;;;5043794;28;20194;-45
2024/01/24 04:02:12;;;;;;;1.20;0.63;;;6.60;99.90;;;;;;5037487;28;20272;-45
2024/01/24 04:04:40;;;;;;;1.20;0.63;;;6.60;99.90;;;;;;5043289;28;20256;-46
2024/01/24 04:07:09;;;;;;;1.75;0.60;;;6.60;99.90;;;;;;5041763;28;20221;-46
2024/01/24 04:09:39;;;;;;;1.88;0.77;;;6.70;99.90;;;;;;5040633;28;20198;-46
2024/01/24 04:12:07;;;;;;;1.20;0.50;;;6.70;99.90;;;;;;5044015;28;20751;-45
2024/01/24 04:14:35;;;;;;;1.55;0.60;;;6.70;99.90;;;;;;5047140;28;20247;-45
2024/01/24 04:17:04;;;;;;;1.85;0.75;;;6.70;99.90;;;;;;5042768;28;20699;-45
2024/01/24 04:19:32;;;;;;;1.77;0.70;;;6.70;99.90;;;;;;5044860;28;20303;-46
2024/01/24 04:22:00;;;;;;;1.55;0.70;;;6.70;99.90;;;;;;5045995;28;20225;-45
2024/01/24 04:24:28;;;;;;;2.47;0.60;;;6.70;99.90;;;;;;5036147;28;20186;-46
2024/01/24 04:26:58;;;;;;;1.58;0.80;;;6.70;99.90;;;;;;5039500;28;20218;-46
2024/01/24 04:29:26;;;;;;;1.50;0.60;;;6.60;99.90;;;;;;5041921;28;20542;-46
2024/01/24 04:31:54;;;;;;;1.30;0.60;;;6.70;99.90;;;;;;5041492;28;20584;-46
2024/01/24 04:34:22;;;;;;;1.10;0.55;;;6.70;99.90;;;;;;5041385;28;20248;-46
2024/01/24 04:36:54;;;;;;;1.50;0.65;;;6.70;99.90;;;;;;5046558;28;20233;-46
2024/01/24 04:39:23;;;;;;;1.33;0.68;;;6.70;99.90;;;;;;5047415;28;20269;-46
2024/01/24 04:41:51;;;;;;;1.20;0.50;;;6.70;99.90;;;;;;5043658;28;20635;-46
2024/01/24 04:44:30;;;;;;;1.20;0.60;;;6.70;99.90;;;;;;5039991;28;20211;-46
2024/01/24 04:46:59;;;;;;;1.10;0.50;;;6.70;99.90;;;;;;5034047;28;20694;-45
2024/01/24 04:49:27;;;;;;;1.60;0.40;;;6.70;99.90;;;;;;5042413;28;20713;-45
2024/01/24 04:52:11;;;;;;;1.15;0.50;;;6.70;99.90;;;;;;5044019;28;20221;-46
2024/01/24 04:54:41;;;;;;;1.45;0.60;;;6.70;99.90;;;;;;5035519;28;20680;-45
2024/01/24 04:57:09;;;;;;;1.10;0.40;;;6.70;99.90;;;;;;5038410;28;20685;-46
2024/01/24 04:59:41;;;;;;;1.13;0.50;;;6.70;99.90;;;;;;5043998;28;20213;-45
2024/01/24 05:02:22;;;;;;;1.92;0.60;;;6.70;99.90;;;;;;5040602;28;20232;-46
2024/01/24 05:04:51;;;;;;;1.80;0.50;;;6.70;99.90;;;;;;5041114;28;20196;-46
2024/01/24 05:07:19;;;;;;;1.30;0.40;;;6.70;99.90;;;;;;5045505;28;20217;-46
2024/01/24 05:09:47;;;;;;;1.33;0.60;;;6.70;99.90;;;;;;5037381;28;20636;-46
2024/01/24 05:12:16;;;;;;;1.38;0.60;;;6.70;99.90;;;;;;5039456;28;20249;-46
2024/01/24 05:14:45;;;;;;;1.35;0.47;;;6.70;99.90;;;;;;5038161;28;20675;-45
2024/01/24 05:17:13;;;;;;;1.25;0.52;;;6.80;99.90;;;;;;5039652;28;20310;-46
2024/01/24 05:19:41;;;;;;;1.35;0.50;;;6.80;99.90;;;;;;5042512;28;20190;-46
2024/01/24 05:22:10;;;;;;;1.10;0.50;;;6.80;99.90;;;;;;5032258;28;20321;-47
2024/01/24 05:24:38;;;;;;;2.03;0.60;;;6.80;99.90;;;;;;5042490;28;20194;-45
2024/01/24 05:27:06;;;;;;;1.63;0.77;;;6.80;99.90;;;;;;5038097;28;20641;-46
2024/01/24 05:29:34;;;;;;;2.45;0.57;;;6.80;99.90;;;;;;5043901;28;20202;-45
2024/01/24 05:32:05;;;;;;;1.20;0.50;;;6.80;99.90;;;;;;5031366;28;20316;-45
2024/01/24 05:34:33;;;;;;;1.35;0.50;;;6.80;99.90;;;;;;5038960;28;20203;-46
2024/01/24 05:37:02;;;;;;;1.10;0.43;;;6.80;99.90;;;;;;5038881;28;20224;-45
2024/01/24 05:39:30;;;;;;;1.45;0.70;;;6.80;99.90;;;;;;5041309;28;20190;-45
2024/01/24 05:41:58;;;;;;;1.50;0.40;;;6.80;99.90;;;;;;5038647;28;20220;-45
2024/01/24 05:44:27;;;;;;;1.40;0.60;;;6.80;99.90;;;;;;5052712;28;20197;-46
2024/01/24 05:46:55;;;;;;;1.45;0.57;;;6.80;99.90;;;;;;5045583;28;20308;-45
2024/01/24 05:49:24;;;;;;;1.20;0.50;;;6.80;99.90;;;;;;5031574;28;20243;-45
2024/01/24 05:51:53;;;;;;;1.20;0.50;;;6.80;99.90;;;;;;5044514;28;20225;-45
2024/01/24 05:54:22;;;;;;;1.40;0.65;;;6.80;99.90;;;;;;5042497;28;20275;-46
2024/01/24 05:56:50;;;;;;;2.20;0.73;;;6.80;99.90;;;;;;5047630;28;20713;-46
2024/01/24 05:59:18;;;;;;;1.30;0.60;;;6.80;99.90;;;;;;5051578;28;20541;-46
2024/01/24 06:01:46;;;;;;;1.17;0.50;;;6.80;99.90;;;;;;5038398;28;20229;-46
2024/01/24 06:04:14;;;;;;;2.20;0.70;;;6.80;99.90;;;;;;5043204;28;20195;-45
2024/01/24 06:06:44;;;;;;;2.35;1.10;;;6.80;99.90;;;;;;5044322;28;20323;-45
2024/01/24 06:09:12;;;;;;;1.50;0.70;;;6.80;99.90;;;;;;5043449;28;20199;-45
2024/01/24 06:11:41;;;;;;;1.88;0.55;;;6.80;99.90;;;;;;5041969;28;20216;-45
2024/01/24 06:14:10;;;;;;;1.50;1.10;;;6.80;99.90;;;;;;5044412;28;20247;-46
2024/01/24 06:16:38;;;;;;;2.28;0.98;;;6.80;99.90;;;;;;5045871;28;20224;-45
2024/01/24 06:19:06;;;;;;;2.78;1.17;;;6.90;99.90;;;;;;5045086;28;20199;-45
2024/01/24 06:21:35;;;;;;;2.03;0.82;;;6.80;99.90;;;;;;5042940;28;20687;-46
2024/01/24 06:24:06;;;;;;;4.05;0.77;;;6.80;99.90;;;;;;5046471;28;20286;-46
2024/01/24 06:26:37;;;;;;;1.63;0.80;;;6.90;99.90;;;;;;5047718;28;20215;-45
2024/01/24 06:29:06;;;;;;;2.38;0.85;;;6.90;99.90;;;;;;5043685;28;20190;-46
2024/01/24 06:31:34;;;;;;;2.45;0.90;;;6.80;99.90;;;;;;5045067;28;20218;-45
2024/01/24 06:34:02;;;;;;;1.92;1.13;;;6.90;99.90;;;;;;5046019;28;20203;-46
2024/01/24 06:36:31;;;;;;;3.40;0.90;;;6.90;99.90;;;;;;5041505;28;20271;-45
2024/01/24 06:38:59;;;;;;;4.32;0.88;;;6.90;99.90;;;;;;5041970;28;20192;-46
2024/01/24 06:41:29;;;;;;;2.83;1.00;;;6.90;99.90;;;;;;5035886;28;20325;-46
2024/01/24 06:43:57;;;;;;;3.08;1.13;;;6.90;99.90;;;;;;5044757;28;20187;-44
2024/01/24 06:46:26;;;;;;;3.97;1.20;;;6.90;99.90;;;;;;5045631;28;20221;-46
2024/01/24 06:48:55;;;;;;;3.67;1.50;;;6.90;99.90;;;;;;5038909;28;20200;-46
2024/01/24 06:51:23;;;;;;;3.03;0.77;;;6.90;99.90;;;;;;5048896;28;20224;-46
2024/01/24 06:53:51;;;;;;;4.00;1.30;;;6.90;99.90;;;;;;5043740;28;20223;-46
2024/01/24 06:56:21;;;;;;;3.67;1.40;;;6.90;99.90;;;;;;5045414;28;20640;-46
2024/01/24 06:58:50;;;;;;;3.42;1.10;;;6.90;99.90;;;;;;5039876;28;20224;-46
2024/01/24 07:01:18;;;;;;;3.72;1.80;;;6.90;99.90;;;;;;5038445;28;20222;-46
2024/01/24 07:03:47;;;;;;;5.00;1.50;;;6.90;99.90;;;;;;5038422;28;20189;-45
2024/01/24 07:06:16;;;;;;;3.25;1.42;;;6.90;99.90;;;;;;5037665;28;20213;-45
2024/01/24 07:08:45;;;;;;;2.95;1.10;;;6.90;99.90;;;;;;5040870;28;20228;-46
2024/01/24 07:11:13;;;;;;;7.78;1.42;;;6.90;99.90;;;;;;5044312;28;20269;-45
2024/01/24 07:13:41;;;;;;;4.53;1.67;;;6.90;99.90;;;;;;5027268;28;20198;-45
2024/01/24 07:16:11;;;;;;;6.07;1.60;;;6.90;99.90;;;;;;5037961;28;20220;-46
2024/01/24 07:18:39;;;;;;;3.30;1.40;;;6.90;99.90;;;;;;5049780;28;20201;-46
2024/01/24 07:21:08;;;;;;;3.40;1.40;;;6.90;99.90;;;;;;5047852;28;20221;-46
2024/01/24 07:23:36;;;;;;;5.75;1.60;;;7.00;99.90;;;;;;5043454;28;20204;-46
2024/01/24 07:26:05;;;;;;;5.40;1.63;;;6.90;99.90;;;;;;5045676;28;20306;-46
2024/01/24 07:28:34;;;;;;;6.60;1.98;;;6.90;99.90;;;;;;5033747;28;20300;-46
2024/01/24 07:31:03;;;;;;;9.00;1.50;;;6.90;99.90;;;;;;5041000;28;20698;-45
2024/01/24 07:33:32;;;;;;;6.13;1.80;;;6.90;99.90;;;;;;5042198;28;20219;-46
2024/01/24 07:36:01;;;;;;;3.38;2.13;;;7.00;99.90;;;;;;5039195;28;20305;-46
2024/01/24 07:38:30;;;;;;;5.88;1.40;;;7.00;99.90;;;;;;5042271;28;20194;-46
2024/01/24 07:40:58;;;;;;;8.15;1.63;;;7.00;99.90;;;;;;5041620;28;20221;-45
2024/01/24 07:43:26;;;;;;;5.78;2.03;;;7.00;99.90;;;;;;5040679;28;20583;-46
2024/01/24 07:45:55;;;;;;;7.72;1.58;;;7.00;99.90;;;;;;5036863;28;20204;-46
2024/01/24 07:48:23;;;;;;;8.65;2.00;;;6.90;99.90;;;;;;5045197;28;20201;-46
2024/01/24 07:50:53;;;;;;;6.38;2.97;;;7.00;99.90;;;;;;5032514;28;20213;-45
2024/01/24 07:53:23;;;;;;;4.40;1.70;;;7.00;99.90;;;;;;5041821;28;20229;-46
2024/01/24 07:55:51;;;;;;;4.05;1.33;;;7.00;99.90;;;;;;5036849;28;20225;-46
2024/01/24 07:58:30;;;;;;;5.45;1.58;;;7.00;99.90;;;;;;5042706;28;20233;-46
2024/01/24 08:00:59;;;;;;;4.60;1.50;;;7.00;99.90;;;;;;5046171;28;20211;-45
2024/01/24 08:03:27;;;;;;;4.90;1.73;;;7.00;99.90;;;;;;5041572;28;20311;-46
2024/01/24 08:05:57;;;;;;;5.72;1.67;;;7.00;99.90;;;;;;5037218;28;20268;-46
2024/01/24 08:08:26;;;;;;;6.78;1.92;;;7.00;99.90;;;;;;5042540;28;20227;-46
2024/01/24 08:10:54;;;;;;;6.15;1.45;;;7.00;99.90;;;;;;5042774;28;20220;-46
2024/01/24 08:13:22;;;;;;;5.55;1.58;;;7.00;99.90;;;;;;5041457;28;20209;-46
2024/01/24 08:15:50;;;;;;;7.38;2.10;;;7.00;99.90;;;;;;5040886;28;20235;-45
2024/01/24 08:18:18;;;;;;;6.40;1.73;;;7.00;99.90;;;;;;5040825;28;20601;-46
2024/01/24 08:20:47;;;;;;;7.95;2.50;;;7.00;99.90;;;;;;5043120;28;20248;-46
2024/01/24 08:23:16;;;;;;;4.60;1.98;;;7.00;99.90;;;;;;5035254;28;20217;-46
2024/01/24 08:25:45;;;;;;;4.80;1.70;;;7.00;99.90;;;;;;5040752;28;20221;-46
2024/01/24 08:28:13;;;;;;;5.78;2.00;;;7.00;99.90;;;;;;5042269;28;20198;-46
2024/01/24 08:30:41;;;;;;;3.08;1.52;;;7.00;99.90;;;;;;5040308;28;20639;-46
2024/01/24 08:33:09;;;;;;;4.45;1.88;;;7.00;99.90;;;;;;5039144;28;20214;-46
2024/01/24 08:35:38;;;;;;;8.38;2.00;;;7.00;99.90;;;;;;5042418;28;20255;-46
2024/01/24 08:38:06;;;;;;;7.80;1.90;;;7.00;99.90;;;;;;5042709;28;20946;-46
2024/01/24 08:40:38;;;;;;;5.32;2.17;;;7.00;99.90;;;;;;5040699;28;20229;-46
2024/01/24 08:43:07;;;;;;;5.30;2.13;;;7.00;99.90;;;;;;5036523;28;20213;-45
2024/01/24 08:45:35;;;;;;;6.30;2.05;;;7.10;99.90;;;;;;5040645;28;20279;-46
2024/01/24 08:48:04;;;;;;;8.80;2.80;;;7.00;99.90;;;;;;5043821;28;20314;-45
2024/01/24 08:50:33;;;;;;;9.50;2.40;;;7.10;99.90;;;;;;5035945;28;20590;-46
2024/01/24 08:53:01;;;;;;;9.40;2.10;;;7.00;99.90;;;;;;5043807;28;20222;-45
2024/01/24 08:55:31;;;;;;;5.18;1.40;;;7.10;99.90;;;;;;5033302;28;20227;-46
2024/01/24 08:58:01;;;;;;;6.78;2.30;;;7.10;99.90;;;;;;5039400;28;20236;-46
2024/01/24 09:00:29;;;;;;;7.30;1.80;;;7.10;99.90;;;;;;5038984;28;20224;-45
2024/01/24 09:02:58;;;;;;;5.90;2.10;;;7.10;99.90;;;;;;5045542;28;20263;-46
2024/01/24 09:05:27;;;;;;;11.05;2.45;;;7.10;99.90;;;;;;5038679;28;20195;-46
2024/01/24 09:07:56;;;;;;;6.47;1.92;;;7.10;99.90;;;;;;5042820;28;20224;-46
2024/01/24 09:10:25;;;;;;;8.85;2.10;;;7.10;99.90;;;;;;5038136;28;20197;-46
2024/01/24 09:12:53;;;;;;;8.35;1.90;;;7.10;99.90;;;;;;5026042;28;20595;-46
2024/01/24 09:15:23;;;;;;;19.20;6.60;;;7.10;99.90;;;;;;5039136;28;20273;-46
2024/01/24 09:17:52;;;;;;;20.60;4.60;;;7.90;99.90;;;;;;5051071;28;20630;-46
2024/01/24 09:20:20;;;;;;;14.15;3.45;;;8.00;99.90;;;;;;5047335;28;20308;-44
2024/01/24 09:22:50;;;;;;;9.43;3.13;;;7.90;99.90;;;;;;5047459;28;20778;-46
2024/01/24 09:25:19;;;;;;;8.82;3.75;;;7.80;99.90;;;;;;5026357;28;20189;-45
2024/01/24 09:27:47;;;;;;;19.33;4.60;;;7.70;99.90;;;;;;5044789;28;20698;-46
2024/01/24 09:30:16;;;;;;;10.93;3.63;;;7.60;99.90;;;;;;5046356;28;20188;-45
2024/01/24 09:32:46;;;;;;;9.38;3.53;;;7.60;99.90;;;;;;5050391;28;20212;-46
2024/01/24 09:35:14;;;;;;;16.25;4.05;;;7.50;99.90;;;;;;5048815;28;20700;-46
2024/01/24 09:37:42;;;;;;;13.13;4.00;;;7.50;99.90;;;;;;5048680;28;20248;-46
2024/01/24 09:40:14;;;;;;;11.52;3.90;;;7.50;99.90;;;;;;5046407;28;20200;-47
2024/01/24 09:42:44;;;;;;;13.48;4.40;;;7.50;99.90;;;;;;5050401;28;20213;-46
2024/01/24 09:45:16;;;;;;;8.63;2.92;;;7.40;99.90;;;;;;5041654;28;20203;-46
2024/01/24 09:47:47;;;;;;;14.70;3.78;;;7.50;99.90;;;;;;5050652;28;20201;-46
2024/01/24 09:50:15;;;;;;;9.77;3.75;;;7.50;99.90;;;;;;5050102;28;20524;-45
2024/01/24 09:52:44;;;;;;;14.77;4.30;;;7.50;99.90;;;;;;5051025;28;20209;-46
2024/01/24 09:55:16;;;;;;;13.32;3.72;;;7.50;99.90;;;;;;5048336;28;20200;-45
2024/01/24 09:57:48;;;;;;;16.60;3.75;;;7.50;99.90;;;;;;5046598;28;20220;-46
2024/01/24 10:00:17;;;;;;;10.70;3.65;;;7.50;99.90;;;;;;5043989;28;20192;-45
2024/01/24 10:02:47;;;;;;;19.00;4.65;;;7.60;99.90;;;;;;5043585;28;20227;-44
2024/01/24 10:05:18;;;;;;;37.08;5.13;;;7.70;99.90;;;;;;5041331;28;20236;-46
2024/01/24 10:07:46;;;;;;;12.60;4.47;;;7.80;99.90;;;;;;5049755;28;20280;-47
2024/01/24 10:10:15;;;;;;;15.60;3.37;;;7.80;99.90;;;;;;5048140;28;20201;-45
2024/01/24 10:12:43;;;;;;;15.70;3.50;;;7.70;99.90;;;;;;5051175;28;20892;-46
2024/01/24 10:15:12;;;;;;;9.00;3.42;;;7.70;99.90;;;;;;5049282;28;20450;-46
2024/01/24 10:17:42;;;;;;;13.25;3.80;;;7.70;99.90;;;;;;5040612;28;20208;-45
2024/01/24 10:20:13;;;;;;;7.43;2.80;;;7.60;99.90;;;;;;5047603;28;20703;-45
2024/01/24 10:22:44;;;;;;;14.40;4.20;;;7.50;99.90;;;;;;5044345;28;20311;-45
2024/01/24 10:25:13;;;;;;;15.55;4.28;;;7.60;99.90;;;;;;5050503;28;20204;-46
2024/01/24 10:27:42;;;;;;;16.55;4.57;;;7.70;99.90;;;;;;5047912;28;20200;-46
2024/01/24 10:30:12;;;;;;;20.77;4.30;;;7.60;99.90;;;;;;5048739;28;20207;-45
2024/01/24 10:32:43;;;;;;;13.15;4.15;;;7.60;99.90;;;;;;5044473;28;20402;-46
2024/01/24 10:35:13;;;;;;;9.97;3.40;;;7.60;99.90;;;;;;5049789;28;20288;-45
2024/01/24 10:37:42;;;;;;;12.48;4.38;;;7.60;99.90;;;;;;5050463;28;20553;-45
2024/01/24 10:40:15;;;;;;;7.60;3.55;;;7.50;99.90;;;;;;5046451;28;20184;-45
2024/01/24 10:42:45;;;;;;;8.75;3.97;;;7.50;99.90;;;;;;5043986;28;20224;-45
2024/01/24 10:45:15;;;;;;;11.77;4.13;;;7.50;99.90;;;;;;5048260;28;20570;-45
2024/01/24 10:47:44;;;;;;;15.27;4.15;;;7.50;99.90;;;;;;5048424;28;20254;-46
2024/01/24 10:50:14;;;;;;;9.55;3.00;;;7.50;99.90;;;;;;5044145;28;20186;-48
2024/01/24 10:52:44;;;;;;;11.98;3.50;;;7.50;99.90;;;;;;5049221;28;20716;-46
2024/01/24 10:55:14;;;;;;;12.20;3.92;;;7.50;99.90;;;;;;5048887;28;20193;-46
2024/01/24 10:57:44;;;;;;;12.75;3.35;;;7.50;99.90;;;;;;5046532;28;20311;-45
2024/01/24 11:00:16;;;;;;;12.95;3.95;;;7.50;99.90;;;;;;5044370;28;20193;-46
2024/01/24 11:02:44;;;;;;;9.00;3.13;;;7.50;99.90;;;;;;5045849;28;20625;-46
2024/01/24 11:05:20;;;;;;;8.35;3.05;;;7.50;99.90;;;;;;5048778;28;20205;-45
2024/01/24 11:07:55;;;;;;;10.05;3.30;;;7.50;99.90;;;;;;5027509;28;20327;-46
2024/01/24 11:10:29;;;;;;;11.50;3.42;;;7.50;99.90;;;;;;5041953;28;20196;-47
2024/01/24 11:12:57;;;;;;;8.32;3.03;;;7.50;99.90;;;;;;5047809;28;20244;-46
2024/01/24 11:15:28;;;;;;;13.45;5.05;;;7.50;99.90;;;;;;5027634;28;20676;-46
2024/01/24 11:18:19;;;;;;;6.90;3.15;;;7.50;99.90;;;;;;5045848;28;20212;-46
2024/01/24 11:20:51;;;;;;;11.98;3.17;;;7.60;99.90;;;;;;5043447;28;20551;-47
2024/01/24 11:23:40;;;;;;;13.95;4.03;;;7.50;99.90;;;;;;5042846;28;20224;-45
2024/01/24 11:26:13;;;;;;;8.07;2.92;;;7.50;99.90;;;;;;5043109;28;20247;-46
2024/01/24 11:28:41;;;;;;;15.93;3.70;;;7.60;99.90;;;;;;5048877;28;20189;-45
2024/01/24 11:31:11;;;;;;;11.40;3.50;;;7.50;99.90;;;;;;5042596;28;20872;-46
2024/01/24 11:34:07;;;;;;;9.77;4.10;;;7.60;99.90;;;;;;5047168;28;20482;-45
2024/01/24 11:36:46;;;;;;;8.18;2.30;;;7.60;99.90;;;;;;5040551;28;20228;-45
2024/01/24 11:39:33;;;;;;;16.42;5.57;;;7.60;99.90;;;;;;5045530;28;20431;-46
2024/01/24 11:42:42;;;;;;;10.20;3.80;;;8.00;99.90;;;;;;5045460;28;20217;-45
2024/01/24 11:45:15;;;;;;;9.95;3.90;;;8.00;99.90;;;;;;5045464;28;22358;-44
2024/01/24 11:47:44;;;;;;;8.77;3.10;;;8.00;99.90;;;;;;5046165;28;20235;-48
2024/01/24 11:50:12;;;;;;;8.53;3.03;;;7.90;99.90;;;;;;5047172;28;20582;-46
2024/01/24 11:52:44;;;;;;;23.40;5.25;;;7.90;99.90;;;;;;5042520;28;20463;-45
2024/01/24 11:55:12;;;;;;;15.70;3.93;;;7.80;99.90;;;;;;5048697;28;20199;-46
2024/01/24 11:57:41;;;;;;;17.63;5.40;;;7.80;99.90;;;;;;5048922;28;20887;-45
2024/01/24 12:00:14;;;;;;;9.13;3.20;;;7.70;99.90;;;;;;5044648;28;20282;-45
2024/01/24 12:02:42;;;;;;;13.32;4.43;;;7.70;99.90;;;;;;5049076;28;20236;-45
2024/01/24 12:05:12;;;;;;;13.18;4.53;;;7.70;99.90;;;;;;5045925;28;20199;-46
2024/01/24 12:07:42;;;;;;;17.35;4.05;;;7.70;99.90;;;;;;5044489;28;20220;-45
2024/01/24 12:10:11;;;;;;;9.70;3.50;;;7.70;99.90;;;;;;5051105;28;20728;-45
2024/01/24 12:12:40;;;;;;;10.57;3.40;;;7.70;99.90;;;;;;5049864;28;20231;-46
2024/01/24 12:15:10;;;;;;;11.10;4.40;;;7.70;99.90;;;;;;5048073;28;20201;-45
2024/01/24 12:17:40;;;;;;;9.90;3.70;;;7.70;99.90;;;;;;5048904;28;20220;-45
2024/01/24 12:20:13;;;;;;;12.73;4.53;;;7.70;99.90;;;;;;5049782;28;20553;-46
2024/01/24 12:22:43;;;;;;;12.20;4.30;;;7.70;99.90;;;;;;5044488;28;20487;-45
2024/01/24 12:25:12;;;;;;;15.55;4.10;;;7.70;99.90;;;;;;5043297;28;20193;-44
2024/01/24 12:27:40;;;;;;;14.65;3.38;;;7.70;99.90;;;;;;5048730;28;20218;-46
2024/01/24 12:30:10;;;;;;;10.93;3.45;;;7.70;99.90;;;;;;5047229;28;20188;-45
2024/01/24 12:32:41;;;;;;;13.95;3.75;;;7.60;99.90;;;;;;5044073;28;20236;-46
2024/01/24 12:35:12;;;;;;;16.65;4.25;;;7.70;99.90;;;;;;5044680;28;20196;-47
2024/01/24 12:37:42;;;;;;;13.75;3.90;;;7.70;99.90;;;;;;5044286;28;20470;-46
2024/01/24 12:40:12;;;;;;;22.13;3.97;;;7.70;99.90;;;;;;5043586;28;20238;-46
2024/01/24 12:42:41;;;;;;;9.27;3.60;;;7.70;99.90;;;;;;5040684;28;20590;-46
2024/01/24 12:45:12;;;;;;;11.75;4.22;;;7.70;99.90;;;;;;5046243;28;20461;-46
2024/01/24 12:47:40;;;;;;;8.68;3.70;;;7.70;99.90;;;;;;5048365;28;20227;-46
2024/01/24 12:50:10;;;;;;;6.32;2.50;;;7.70;99.90;;;;;;5046389;28;20188;-46
2024/01/24 12:52:39;;;;;;;18.27;4.25;;;7.70;99.90;;;;;;5049083;28;20216;-46
2024/01/24 12:55:09;;;;;;;16.20;3.40;;;7.70;99.90;;;;;;5048617;28;20706;-46
2024/01/24 12:57:38;;;;;;;9.80;3.92;;;7.70;99.90;;;;;;5049212;28;20298;-45
2024/01/24 13:00:09;;;;;;;15.10;4.72;;;7.70;99.90;;;;;;5048487;28;20203;-45
2024/01/24 13:02:38;;;;;;;13.95;3.58;;;7.70;99.90;;;;;;5041104;28;20281;-46
2024/01/24 13:05:08;;;;;;;11.68;4.57;;;7.70;99.90;;;;;;5049604;28;20196;-46
2024/01/24 13:07:37;;;;;;;12.73;3.83;;;7.70;99.90;;;;;;5052219;28;20699;-46